sensor_id;sensor_type;location;lat;lon;timestamp;P1;durP1;ratioP1;P2;durP2;ratioP2
10230;SDS011;62604;49.432;8.680;2023-10-08T00:02:08;15.40;;;14.10;;
10230;SDS011;62604;49.432;8.680;2023-10-08T00:04:36;15.77;;;14.48;;
10230;SDS011;62604;49.432;8.680;2023-10-08T00:07:03;15.60;;;14.40;;
10230;SDS011;62604;49.432;8.680;2023-10-08T00:09:32;15.10;;;14.00;;
10230;SDS011;62604;49.432;8.680;2023-10-08T00:12:01;15.88;;;14.60;;
10230;SDS011;62604;49.432;8.680;2023-10-08T00:14:30;16.08;;;14.57;;
10230;SDS011;62604;49.432;8.680;2023-10-08T00:16:58;16.13;;;14.75;;
10230;SDS011;62604;49.432;8.680;2023-10-08T00:19:25;15.52;;;14.32;;
10230;SDS011;62604;49.432;8.680;2023-10-08T00:21:59;16.05;;;14.75;;
10230;SDS011;62604;49.432;8.680;2023-10-08T00:24:31;15.40;;;14.23;;
10230;SDS011;62604;49.432;8.680;2023-10-08T00:26:58;15.60;;;14.40;;
10230;SDS011;62604;49.432;8.680;2023-10-08T00:29:26;15.50;;;14.30;;
10230;SDS011;62604;49.432;8.680;2023-10-08T00:31:58;14.93;;;13.80;;
10230;SDS011;62604;49.432;8.680;2023-10-08T00:34:27;15.73;;;14.43;;
10230;SDS011;62604;49.432;8.680;2023-10-08T00:36:54;15.18;;;13.98;;
10230;SDS011;62604;49.432;8.680;2023-10-08T00:39:21;15.13;;;13.93;;
10230;SDS011;62604;49.432;8.680;2023-10-08T00:41:52;15.55;;;14.13;;
10230;SDS011;62604;49.432;8.680;2023-10-08T00:44:23;15.55;;;14.27;;
10230;SDS011;62604;49.432;8.680;2023-10-08T00:46:55;15.18;;;13.98;;
10230;SDS011;62604;49.432;8.680;2023-10-08T00:49:27;15.82;;;14.32;;
10230;SDS011;62604;49.432;8.680;2023-10-08T00:52:13;15.43;;;14.15;;
10230;SDS011;62604;49.432;8.680;2023-10-08T00:54:55;14.90;;;13.80;;
10230;SDS011;62604;49.432;8.680;2023-10-08T00:57:34;15.18;;;13.98;;
10230;SDS011;62604;49.432;8.680;2023-10-08T01:00:03;15.48;;;14.27;;
10230;SDS011;62604;49.432;8.680;2023-10-08T01:02:40;15.13;;;13.93;;
10230;SDS011;62604;49.432;8.680;2023-10-08T01:05:13;15.00;;;13.60;;
10230;SDS011;62604;49.432;8.680;2023-10-08T01:07:44;14.43;;;13.30;;
10230;SDS011;62604;49.432;8.680;2023-10-08T01:10:14;14.35;;;13.25;;
10230;SDS011;62604;49.432;8.680;2023-10-08T11:21:49;20.13;;;13.95;;
10230;SDS011;62604;49.432;8.680;2023-10-08T11:24:26;15.18;;;13.98;;
10230;SDS011;62604;49.432;8.680;2023-10-08T11:26:54;19.27;;;17.67;;
10230;SDS011;62604;49.432;8.680;2023-10-08T11:29:31;19.25;;;17.75;;
10230;SDS011;62604;49.432;8.680;2023-10-08T11:31:59;18.90;;;17.40;;
10230;SDS011;62604;49.432;8.680;2023-10-08T11:34:31;19.08;;;17.58;;
10230;SDS011;62604;49.432;8.680;2023-10-08T11:37:05;19.75;;;18.15;;
10230;SDS011;62604;49.432;8.680;2023-10-08T11:39:45;19.52;;;17.83;;
10230;SDS011;62604;49.432;8.680;2023-10-08T11:42:12;19.52;;;17.83;;
10230;SDS011;62604;49.432;8.680;2023-10-08T11:45:05;19.35;;;17.67;;
10230;SDS011;62604;49.432;8.680;2023-10-08T11:47:44;20.17;;;18.40;;
10230;SDS011;62604;49.432;8.680;2023-10-08T11:50:13;19.45;;;17.85;;
10230;SDS011;62604;49.432;8.680;2023-10-08T11:52:46;20.02;;;18.05;;
10230;SDS011;62604;49.432;8.680;2023-10-08T11:55:15;19.50;;;18.00;;
10230;SDS011;62604;49.432;8.680;2023-10-08T11:57:44;19.50;;;17.75;;
10230;SDS011;62604;49.432;8.680;2023-10-08T12:00:14;19.85;;;18.15;;
10230;SDS011;62604;49.432;8.680;2023-10-08T12:02:50;19.15;;;17.65;;
10230;SDS011;62604;49.432;8.680;2023-10-08T12:05:19;19.27;;;17.67;;
10230;SDS011;62604;49.432;8.680;2023-10-08T12:07:50;19.75;;;18.15;;
10230;SDS011;62604;49.432;8.680;2023-10-08T12:10:22;19.52;;;17.83;;
10230;SDS011;62604;49.432;8.680;2023-10-08T12:12:50;19.73;;;17.83;;
10230;SDS011;62604;49.432;8.680;2023-10-08T12:15:18;18.92;;;17.42;;
10230;SDS011;62604;49.432;8.680;2023-10-08T12:17:48;19.08;;;17.50;;
10230;SDS011;62604;49.432;8.680;2023-10-08T12:20:45;19.60;;;18.00;;
10230;SDS011;62604;49.432;8.680;2023-10-08T12:23:12;19.85;;;18.15;;
10230;SDS011;62604;49.432;8.680;2023-10-08T12:25:50;19.35;;;17.80;;
10230;SDS011;62604;49.432;8.680;2023-10-08T12:28:17;19.08;;;17.48;;
10230;SDS011;62604;49.432;8.680;2023-10-08T12:30:45;20.25;;;18.15;;
10230;SDS011;62604;49.432;8.680;2023-10-08T12:33:14;19.70;;;18.10;;
10230;SDS011;62604;49.432;8.680;2023-10-08T12:35:42;19.48;;;17.67;;
10230;SDS011;62604;49.432;8.680;2023-10-08T12:38:10;19.10;;;17.50;;
10230;SDS011;62604;49.432;8.680;2023-10-08T12:40:38;20.13;;;18.42;;
10230;SDS011;62604;49.432;8.680;2023-10-08T12:43:18;20.02;;;18.30;;
10230;SDS011;62604;49.432;8.680;2023-10-08T12:45:46;19.55;;;17.95;;
10230;SDS011;62604;49.432;8.680;2023-10-08T12:48:18;19.02;;;17.52;;
10230;SDS011;62604;49.432;8.680;2023-10-08T12:50:46;20.33;;;18.08;;
10230;SDS011;62604;49.432;8.680;2023-10-08T12:53:20;20.02;;;18.30;;
10230;SDS011;62604;49.432;8.680;2023-10-08T12:55:52;20.02;;;18.10;;
10230;SDS011;62604;49.432;8.680;2023-10-08T12:58:20;18.60;;;17.10;;
10230;SDS011;62604;49.432;8.680;2023-10-08T13:00:50;21.33;;;17.95;;
10230;SDS011;62604;49.432;8.680;2023-10-08T13:03:22;19.27;;;17.67;;
10230;SDS011;62604;49.432;8.680;2023-10-08T13:05:56;19.33;;;17.80;;
10230;SDS011;62604;49.432;8.680;2023-10-08T13:08:30;19.80;;;17.75;;
10230;SDS011;62604;49.432;8.680;2023-10-08T13:10:59;18.73;;;17.20;;
10230;SDS011;62604;49.432;8.680;2023-10-08T13:13:27;18.98;;;17.45;;
10230;SDS011;62604;49.432;8.680;2023-10-08T13:15:54;18.85;;;17.35;;
10230;SDS011;62604;49.432;8.680;2023-10-08T13:18:25;19.15;;;17.55;;
10230;SDS011;62604;49.432;8.680;2023-10-08T13:20:52;19.55;;;17.50;;
10230;SDS011;62604;49.432;8.680;2023-10-08T13:23:20;19.52;;;17.80;;
10230;SDS011;62604;49.432;8.680;2023-10-08T13:25:50;18.60;;;17.10;;
10230;SDS011;62604;49.432;8.680;2023-10-08T13:28:19;18.35;;;16.85;;
10230;SDS011;62604;49.432;8.680;2023-10-08T13:30:47;18.67;;;17.17;;
10230;SDS011;62604;49.432;8.680;2023-10-08T13:33:17;18.83;;;17.10;;
10230;SDS011;62604;49.432;8.680;2023-10-08T13:35:45;18.17;;;16.75;;
10230;SDS011;62604;49.432;8.680;2023-10-08T13:38:15;17.90;;;16.50;;
10230;SDS011;62604;49.432;8.680;2023-10-08T13:40:44;18.58;;;16.88;;
10230;SDS011;62604;49.432;8.680;2023-10-08T13:43:29;18.50;;;16.88;;
10230;SDS011;62604;49.432;8.680;2023-10-08T13:46:03;18.65;;;17.05;;
10230;SDS011;62604;49.432;8.680;2023-10-08T13:48:32;18.67;;;16.77;;
10230;SDS011;62604;49.432;8.680;2023-10-08T13:51:00;18.42;;;17.02;;
10230;SDS011;62604;49.432;8.680;2023-10-08T13:53:29;18.25;;;16.67;;
10230;SDS011;62604;49.432;8.680;2023-10-08T13:55:57;18.20;;;16.67;;
10230;SDS011;62604;49.432;8.680;2023-10-08T13:58:26;18.17;;;16.67;;
10230;SDS011;62604;49.432;8.680;2023-10-08T14:00:56;18.63;;;17.02;;
10230;SDS011;62604;49.432;8.680;2023-10-08T14:03:25;18.20;;;16.80;;
10230;SDS011;62604;49.432;8.680;2023-10-08T14:05:56;18.35;;;16.52;;
10230;SDS011;62604;49.432;8.680;2023-10-08T14:08:27;19.00;;;17.08;;
10230;SDS011;62604;49.432;8.680;2023-10-08T14:10:55;17.38;;;15.98;;
10230;SDS011;62604;49.432;8.680;2023-10-08T14:13:29;18.30;;;16.67;;
10230;SDS011;62604;49.432;8.680;2023-10-08T14:15:57;17.88;;;16.48;;
10230;SDS011;62604;49.432;8.680;2023-10-08T14:18:26;17.88;;;16.33;;
10230;SDS011;62604;49.432;8.680;2023-10-08T14:20:54;18.05;;;16.40;;
10230;SDS011;62604;49.432;8.680;2023-10-08T14:23:21;17.38;;;16.08;;
10230;SDS011;62604;49.432;8.680;2023-10-08T14:25:50;17.58;;;16.08;;
10230;SDS011;62604;49.432;8.680;2023-10-08T14:28:20;18.73;;;17.13;;
10230;SDS011;62604;49.432;8.680;2023-10-08T14:31:07;17.52;;;16.13;;
10230;SDS011;62604;49.432;8.680;2023-10-08T14:33:34;18.23;;;16.70;;
10230;SDS011;62604;49.432;8.680;2023-10-08T14:36:07;17.98;;;16.52;;
10230;SDS011;62604;49.432;8.680;2023-10-08T14:38:51;18.05;;;16.55;;
10230;SDS011;62604;49.432;8.680;2023-10-08T14:41:38;18.00;;;16.60;;
10230;SDS011;62604;49.432;8.680;2023-10-08T14:44:22;17.67;;;16.23;;
10230;SDS011;62604;49.432;8.680;2023-10-08T14:46:51;18.45;;;16.95;;
10230;SDS011;62604;49.432;8.680;2023-10-08T14:49:20;18.35;;;16.85;;
10230;SDS011;62604;49.432;8.680;2023-10-08T14:51:48;17.80;;;16.30;;
10230;SDS011;62604;49.432;8.680;2023-10-08T14:54:18;18.38;;;16.60;;
10230;SDS011;62604;49.432;8.680;2023-10-08T14:56:46;17.60;;;16.20;;
10230;SDS011;62604;49.432;8.680;2023-10-08T14:59:14;18.58;;;16.83;;
10230;SDS011;62604;49.432;8.680;2023-10-08T15:01:40;19.70;;;17.58;;
10230;SDS011;62604;49.432;8.680;2023-10-08T15:04:11;19.45;;;17.45;;
10230;SDS011;62604;49.432;8.680;2023-10-08T15:06:38;18.48;;;16.58;;
10230;SDS011;62604;49.432;8.680;2023-10-08T15:09:05;18.85;;;17.05;;
10230;SDS011;62604;49.432;8.680;2023-10-08T15:11:34;17.63;;;16.23;;
10230;SDS011;62604;49.432;8.680;2023-10-08T15:14:02;18.08;;;16.67;;
10230;SDS011;62604;49.432;8.680;2023-10-08T15:16:34;18.15;;;16.55;;
10230;SDS011;62604;49.432;8.680;2023-10-08T15:19:02;17.80;;;16.30;;
10230;SDS011;62604;49.432;8.680;2023-10-08T15:21:31;18.23;;;16.63;;
10230;SDS011;62604;49.432;8.680;2023-10-08T15:23:59;18.13;;;16.58;;
10230;SDS011;62604;49.432;8.680;2023-10-08T15:26:30;17.60;;;16.20;;
10230;SDS011;62604;49.432;8.680;2023-10-08T15:28:57;18.05;;;16.42;;
10230;SDS011;62604;49.432;8.680;2023-10-08T15:31:24;18.05;;;16.55;;
10230;SDS011;62604;49.432;8.680;2023-10-08T15:33:51;17.55;;;16.00;;
10230;SDS011;62604;49.432;8.680;2023-10-08T15:36:19;17.70;;;16.20;;
10230;SDS011;62604;49.432;8.680;2023-10-08T15:38:47;17.40;;;16.02;;
10230;SDS011;62604;49.432;8.680;2023-10-08T15:41:14;17.70;;;16.20;;
10230;SDS011;62604;49.432;8.680;2023-10-08T15:43:49;17.52;;;16.05;;
10230;SDS011;62604;49.432;8.680;2023-10-08T15:46:19;17.42;;;16.00;;
10230;SDS011;62604;49.432;8.680;2023-10-08T15:48:46;17.52;;;16.02;;
10230;SDS011;62604;49.432;8.680;2023-10-08T15:51:12;17.88;;;16.25;;
10230;SDS011;62604;49.432;8.680;2023-10-08T15:53:39;16.90;;;15.50;;
10230;SDS011;62604;49.432;8.680;2023-10-08T15:56:08;17.75;;;16.13;;
10230;SDS011;62604;49.432;8.680;2023-10-08T15:58:35;18.25;;;16.63;;
10230;SDS011;62604;49.432;8.680;2023-10-08T16:01:02;17.48;;;15.98;;
10230;SDS011;62604;49.432;8.680;2023-10-08T16:03:29;17.13;;;15.55;;
10230;SDS011;62604;49.432;8.680;2023-10-08T16:05:56;17.42;;;15.73;;
10230;SDS011;62604;49.432;8.680;2023-10-08T16:08:23;17.60;;;15.88;;
10230;SDS011;62604;49.432;8.680;2023-10-08T16:10:50;16.73;;;15.32;;
10230;SDS011;62604;49.432;8.680;2023-10-08T16:13:19;17.50;;;15.88;;
10230;SDS011;62604;49.432;8.680;2023-10-08T16:15:46;17.45;;;15.95;;
10230;SDS011;62604;49.432;8.680;2023-10-08T16:18:13;16.80;;;15.40;;
10230;SDS011;62604;49.432;8.680;2023-10-08T16:20:41;17.27;;;15.70;;
10230;SDS011;62604;49.432;8.680;2023-10-08T16:23:08;17.50;;;16.00;;
10230;SDS011;62604;49.432;8.680;2023-10-08T16:25:37;16.98;;;15.48;;
10230;SDS011;62604;49.432;8.680;2023-10-08T16:28:04;17.13;;;15.63;;
10230;SDS011;62604;49.432;8.680;2023-10-08T16:30:34;16.77;;;15.30;;
10230;SDS011;62604;49.432;8.680;2023-10-08T16:33:01;17.15;;;15.68;;
10230;SDS011;62604;49.432;8.680;2023-10-08T16:35:30;16.83;;;15.45;;
10230;SDS011;62604;49.432;8.680;2023-10-08T16:37:58;17.52;;;15.75;;
10230;SDS011;62604;49.432;8.680;2023-10-08T16:40:25;16.58;;;15.30;;
10230;SDS011;62604;49.432;8.680;2023-10-08T16:42:52;16.88;;;15.50;;
10230;SDS011;62604;49.432;8.680;2023-10-08T16:45:19;16.70;;;15.18;;
10230;SDS011;62604;49.432;8.680;2023-10-08T16:47:49;17.00;;;15.50;;
10230;SDS011;62604;49.432;8.680;2023-10-08T16:50:16;17.65;;;16.20;;
10230;SDS011;62604;49.432;8.680;2023-10-08T16:52:44;16.65;;;15.27;;
10230;SDS011;62604;49.432;8.680;2023-10-08T16:55:13;16.38;;;15.05;;
10230;SDS011;62604;49.432;8.680;2023-10-08T16:57:40;17.80;;;15.95;;
10230;SDS011;62604;49.432;8.680;2023-10-08T17:00:08;16.88;;;15.30;;
10230;SDS011;62604;49.432;8.680;2023-10-08T17:02:37;16.83;;;15.30;;
10230;SDS011;62604;49.432;8.680;2023-10-08T17:05:06;16.55;;;15.15;;
10230;SDS011;62604;49.432;8.680;2023-10-08T17:07:36;16.15;;;14.88;;
10230;SDS011;62604;49.432;8.680;2023-10-08T17:10:04;17.08;;;15.40;;
10230;SDS011;62604;49.432;8.680;2023-10-08T17:12:32;16.63;;;15.30;;
10230;SDS011;62604;49.432;8.680;2023-10-08T17:14:59;16.50;;;15.20;;
10230;SDS011;62604;49.432;8.680;2023-10-08T17:17:30;16.52;;;15.20;;
10230;SDS011;62604;49.432;8.680;2023-10-08T17:19:57;16.85;;;15.07;;
10230;SDS011;62604;49.432;8.680;2023-10-08T17:22:27;16.88;;;15.35;;
10230;SDS011;62604;49.432;8.680;2023-10-08T17:24:54;16.88;;;15.45;;
10230;SDS011;62604;49.432;8.680;2023-10-08T17:27:22;16.50;;;15.10;;
10230;SDS011;62604;49.432;8.680;2023-10-08T17:29:51;16.77;;;15.40;;
10230;SDS011;62604;49.432;8.680;2023-10-08T17:32:18;17.27;;;15.85;;
10230;SDS011;62604;49.432;8.680;2023-10-08T17:34:46;16.20;;;14.80;;
10230;SDS011;62604;49.432;8.680;2023-10-08T17:37:13;16.92;;;15.48;;
10230;SDS011;62604;49.432;8.680;2023-10-08T17:39:42;17.38;;;15.68;;
10230;SDS011;62604;49.432;8.680;2023-10-08T17:42:10;17.05;;;15.60;;
10230;SDS011;62604;49.432;8.680;2023-10-08T17:44:38;17.10;;;15.70;;
10230;SDS011;62604;49.432;8.680;2023-10-08T17:47:05;17.42;;;15.68;;
10230;SDS011;62604;49.432;8.680;2023-10-08T17:49:34;16.55;;;15.25;;
10230;SDS011;62604;49.432;8.680;2023-10-08T17:52:03;17.42;;;15.68;;
10230;SDS011;62604;49.432;8.680;2023-10-08T17:54:31;17.27;;;15.73;;
10230;SDS011;62604;49.432;8.680;2023-10-08T17:57:03;16.77;;;15.43;;
10230;SDS011;62604;49.432;8.680;2023-10-08T17:59:31;16.77;;;15.38;;
10230;SDS011;62604;49.432;8.680;2023-10-08T18:01:58;17.13;;;15.73;;
10230;SDS011;62604;49.432;8.680;2023-10-08T18:04:25;16.50;;;15.20;;
10230;SDS011;62604;49.432;8.680;2023-10-08T18:06:52;17.15;;;15.75;;
10230;SDS011;62604;49.432;8.680;2023-10-08T18:09:20;16.08;;;14.73;;
10230;SDS011;62604;49.432;8.680;2023-10-08T18:11:49;19.08;;;14.75;;
10230;SDS011;62604;49.432;8.680;2023-10-08T18:14:18;15.85;;;13.98;;
10230;SDS011;62604;49.432;8.680;2023-10-08T18:16:47;15.63;;;14.18;;
10230;SDS011;62604;49.432;8.680;2023-10-08T18:19:14;14.85;;;13.65;;
10230;SDS011;62604;49.432;8.680;2023-10-08T18:21:42;14.63;;;13.40;;
10230;SDS011;62604;49.432;8.680;2023-10-08T18:24:10;14.85;;;13.65;;
10230;SDS011;62604;49.432;8.680;2023-10-08T18:26:40;14.63;;;13.40;;
10230;SDS011;62604;49.432;8.680;2023-10-08T18:29:07;14.90;;;13.73;;
10230;SDS011;62604;49.432;8.680;2023-10-08T18:31:39;14.68;;;13.48;;
10230;SDS011;62604;49.432;8.680;2023-10-08T18:34:06;14.38;;;13.23;;
10230;SDS011;62604;49.432;8.680;2023-10-08T18:36:33;14.50;;;13.30;;
10230;SDS011;62604;49.432;8.680;2023-10-08T18:39:01;15.38;;;14.02;;
10230;SDS011;62604;49.432;8.680;2023-10-08T18:41:37;14.85;;;13.70;;
10230;SDS011;62604;49.432;8.680;2023-10-08T18:44:05;15.10;;;13.73;;
10230;SDS011;62604;49.432;8.680;2023-10-08T18:46:33;14.63;;;13.43;;
10230;SDS011;62604;49.432;8.680;2023-10-08T18:49:03;17.52;;;15.95;;
10230;SDS011;62604;49.432;8.680;2023-10-08T18:51:31;16.80;;;15.50;;
10230;SDS011;62604;49.432;8.680;2023-10-08T18:53:59;17.27;;;15.82;;
10230;SDS011;62604;49.432;8.680;2023-10-08T18:56:26;17.30;;;15.90;;
10230;SDS011;62604;49.432;8.680;2023-10-08T18:58:53;17.42;;;15.77;;
10230;SDS011;62604;49.432;8.680;2023-10-08T19:01:20;16.90;;;15.50;;
10230;SDS011;62604;49.432;8.680;2023-10-08T19:03:51;16.85;;;15.55;;
10230;SDS011;62604;49.432;8.680;2023-10-08T19:06:21;16.98;;;15.73;;
10230;SDS011;62604;49.432;8.680;2023-10-08T19:08:49;16.75;;;15.40;;
10230;SDS011;62604;49.432;8.680;2023-10-08T19:11:16;17.65;;;16.17;;
10230;SDS011;62604;49.432;8.680;2023-10-08T19:13:43;17.52;;;16.10;;
10230;SDS011;62604;49.432;8.680;2023-10-08T19:16:11;16.52;;;15.20;;
10230;SDS011;62604;49.432;8.680;2023-10-08T19:18:40;13.30;;;12.23;;
10230;SDS011;62604;49.432;8.680;2023-10-08T19:21:14;14.02;;;12.77;;
10230;SDS011;62604;49.432;8.680;2023-10-08T19:23:45;14.30;;;12.80;;
10230;SDS011;62604;49.432;8.680;2023-10-08T19:26:12;13.30;;;12.20;;
10230;SDS011;62604;49.432;8.680;2023-10-08T19:28:42;13.70;;;12.60;;
10230;SDS011;62604;49.432;8.680;2023-10-08T19:31:10;14.13;;;13.02;;
10230;SDS011;62604;49.432;8.680;2023-10-08T19:33:39;16.83;;;15.07;;
10230;SDS011;62604;49.432;8.680;2023-10-08T19:36:06;16.05;;;14.68;;
10230;SDS011;62604;49.432;8.680;2023-10-08T19:38:34;16.35;;;14.65;;
10230;SDS011;62604;49.432;8.680;2023-10-08T19:41:03;16.48;;;15.00;;
10230;SDS011;62604;49.432;8.680;2023-10-08T19:43:30;16.67;;;15.18;;
10230;SDS011;62604;49.432;8.680;2023-10-08T19:45:58;17.10;;;15.80;;
10230;SDS011;62604;49.432;8.680;2023-10-08T19:48:25;15.25;;;14.02;;
10230;SDS011;62604;49.432;8.680;2023-10-08T19:50:53;15.55;;;14.05;;
10230;SDS011;62604;49.432;8.680;2023-10-08T19:53:20;14.30;;;13.10;;
10230;SDS011;62604;49.432;8.680;2023-10-08T19:55:49;16.00;;;14.52;;
10230;SDS011;62604;49.432;8.680;2023-10-08T19:58:18;15.63;;;14.23;;
10230;SDS011;62604;49.432;8.680;2023-10-08T20:00:46;16.17;;;14.68;;
10230;SDS011;62604;49.432;8.680;2023-10-08T20:03:15;15.98;;;14.70;;
10230;SDS011;62604;49.432;8.680;2023-10-08T20:05:43;16.65;;;15.25;;
10230;SDS011;62604;49.432;8.680;2023-10-08T20:08:12;17.75;;;16.15;;
10230;SDS011;62604;49.432;8.680;2023-10-08T20:10:40;17.33;;;15.77;;
10230;SDS011;62604;49.432;8.680;2023-10-08T20:13:09;16.73;;;15.38;;
10230;SDS011;62604;49.432;8.680;2023-10-08T20:15:39;16.67;;;15.10;;
10230;SDS011;62604;49.432;8.680;2023-10-08T20:18:07;16.17;;;14.75;;
10230;SDS011;62604;49.432;8.680;2023-10-08T20:20:35;15.88;;;14.65;;
10230;SDS011;62604;49.432;8.680;2023-10-08T20:23:03;15.82;;;14.38;;
10230;SDS011;62604;49.432;8.680;2023-10-08T20:25:35;7.15;;;6.43;;
10230;SDS011;62604;49.432;8.680;2023-10-08T20:28:05;8.52;;;7.78;;
10230;SDS011;62604;49.432;8.680;2023-10-08T20:30:34;13.48;;;12.30;;
10230;SDS011;62604;49.432;8.680;2023-10-08T20:33:06;7.35;;;6.65;;
10230;SDS011;62604;49.432;8.680;2023-10-08T20:35:34;16.63;;;15.07;;
10230;SDS011;62604;49.432;8.680;2023-10-08T20:38:02;16.98;;;15.35;;
10230;SDS011;62604;49.432;8.680;2023-10-08T20:40:29;17.23;;;15.50;;
10230;SDS011;62604;49.432;8.680;2023-10-08T20:42:59;16.02;;;14.50;;
10230;SDS011;62604;49.432;8.680;2023-10-08T20:45:26;15.85;;;14.50;;
10230;SDS011;62604;49.432;8.680;2023-10-08T20:47:53;16.52;;;15.20;;
10230;SDS011;62604;49.432;8.680;2023-10-08T20:50:23;16.88;;;15.48;;
10230;SDS011;62604;49.432;8.680;2023-10-08T20:52:53;16.80;;;15.50;;
10230;SDS011;62604;49.432;8.680;2023-10-08T20:55:21;17.00;;;15.68;;
10230;SDS011;62604;49.432;8.680;2023-10-08T20:57:50;16.77;;;15.13;;
10230;SDS011;62604;49.432;8.680;2023-10-08T21:00:18;17.02;;;15.35;;
10230;SDS011;62604;49.432;8.680;2023-10-08T21:02:47;16.65;;;15.35;;
10230;SDS011;62604;49.432;8.680;2023-10-08T21:05:14;17.33;;;15.93;;
10230;SDS011;62604;49.432;8.680;2023-10-08T21:07:43;17.27;;;15.85;;
10230;SDS011;62604;49.432;8.680;2023-10-08T21:10:12;17.35;;;15.80;;
10230;SDS011;62604;49.432;8.680;2023-10-08T21:12:40;16.50;;;15.35;;
10230;SDS011;62604;49.432;8.680;2023-10-08T21:15:07;16.92;;;15.48;;
10230;SDS011;62604;49.432;8.680;2023-10-08T21:17:36;17.20;;;15.48;;
10230;SDS011;62604;49.432;8.680;2023-10-08T21:20:03;16.73;;;14.57;;
10230;SDS011;62604;49.432;8.680;2023-10-08T21:22:34;16.10;;;14.80;;
10230;SDS011;62604;49.432;8.680;2023-10-08T21:25:04;16.98;;;15.27;;
10230;SDS011;62604;49.432;8.680;2023-10-08T21:27:32;15.95;;;14.68;;
10230;SDS011;62604;49.432;8.680;2023-10-08T21:29:59;16.88;;;15.32;;
10230;SDS011;62604;49.432;8.680;2023-10-08T21:32:26;15.57;;;14.15;;
10230;SDS011;62604;49.432;8.680;2023-10-08T21:34:53;15.68;;;14.35;;
10230;SDS011;62604;49.432;8.680;2023-10-08T21:37:21;15.52;;;14.25;;
10230;SDS011;62604;49.432;8.680;2023-10-08T21:39:48;16.65;;;15.00;;
10230;SDS011;62604;49.432;8.680;2023-10-08T21:42:16;15.35;;;14.07;;
10230;SDS011;62604;49.432;8.680;2023-10-08T21:44:43;15.75;;;14.45;;
10230;SDS011;62604;49.432;8.680;2023-10-08T21:47:11;16.15;;;14.63;;
10230;SDS011;62604;49.432;8.680;2023-10-08T21:49:38;15.20;;;13.90;;
10230;SDS011;62604;49.432;8.680;2023-10-08T21:52:05;16.25;;;14.63;;
10230;SDS011;62604;49.432;8.680;2023-10-08T21:54:32;16.45;;;14.80;;
10230;SDS011;62604;49.432;8.680;2023-10-08T21:57:00;15.20;;;13.93;;
10230;SDS011;62604;49.432;8.680;2023-10-08T21:59:29;15.20;;;14.10;;
10230;SDS011;62604;49.432;8.680;2023-10-08T22:01:56;18.83;;;14.70;;
